Newton Field (59B)
Jackman, ME
Field Elevation: 1178
Lat: 45°37.38N  Long: 70°14.56W
CTAF/Unicom Freq: 122.9000
    
Weather Advisories
2020-10-01   14:00 Z
Altimeter 29.77" Hg
Wind 270° @ 9 KT
Gusts 14 KT
Visibility 10 SM
Ceiling --
Present Wx
Temperature 16° C (61° F)
Dewpoint 6° C (43° F)
Relative Humidity 53%
Density Altitude --
Condensation Altitude 5,900 feet
Precip Gauge
METAR 59B 011400Z AUTO 27009G14KT VIS 10 SM 16/06 A2977